Time;durP1;ratioP1;P1;durP2;ratioP2;P2;SDS_P1;SDS_P2;PMS_P1;PMS_P2;Temp;Humidity;BMP_temperature;BMP_pressure;BME280_temperature;BME280_humidity;BME280_pressure;Samples;Min_cycle;Max_cycle;Signal;HPM_P1;HPM_P2
2022/08/08 00:01:21;;;;;;;;;;;17.10;99.90;;;;;;5094830;28;19920;-66
2022/08/08 00:03:53;;;;;;;;;;;17.10;99.90;;;;;;5090412;28;19913;-67
2022/08/08 00:06:31;;;;;;;;;;;17.00;99.90;;;;;;5094424;28;19916;-66
2022/08/08 00:09:00;;;;;;;;;;;16.90;99.90;;;;;;5090538;28;20374;-66
2022/08/08 00:11:26;;;;;;;;;;;16.80;99.90;;;;;;5081791;28;20305;-67
2022/08/08 00:14:00;;;;;;;;;;;16.70;99.90;;;;;;5089378;28;19912;-67
2022/08/08 00:16:30;;;;;;;;;;;16.80;99.90;;;;;;5091912;28;19912;-67
2022/08/08 00:19:02;;;;;;;;;;;16.70;99.90;;;;;;5088899;28;20015;-66
2022/08/08 00:21:35;;;;;;;;;;;16.70;99.90;;;;;;5092056;28;19939;-67
2022/08/08 00:24:05;;;;;;;;;;;16.60;99.90;;;;;;5091627;28;19911;-67
2022/08/08 00:26:47;;;;;;;;;;;16.60;99.90;;;;;;5097766;28;19912;-67
2022/08/08 00:29:21;;;;;;;;;;;16.60;99.90;;;;;;5083015;28;19912;-67
2022/08/08 00:31:49;;;;;;;;;;;16.60;99.90;;;;;;5094276;28;19912;-67
2022/08/08 00:37:02;;;;;;;;;;;16.50;99.90;;;;;;5089971;28;20425;-67
2022/08/08 00:39:37;;;;;;;;;;;16.50;99.90;;;;;;5093915;28;19934;-67
2022/08/08 00:42:06;;;;;;;;;;;16.40;99.90;;;;;;5092431;28;20454;-68
2022/08/08 00:44:34;;;;;;;;;;;16.40;99.90;;;;;;5098371;28;19912;-67
2022/08/08 00:47:15;;;;;;;;;;;16.40;99.90;;;;;;5092544;28;20339;-67
2022/08/08 00:49:40;;;;;;;;;;;16.30;99.90;;;;;;5098396;28;20069;-67
2022/08/08 00:52:25;;;;;;;;;;;16.30;99.90;;;;;;5093297;28;19999;-67
2022/08/08 00:55:05;;;;;;;;;;;16.30;99.90;;;;;;5094394;28;19912;-67
2022/08/08 00:57:50;;;;;;;;;;;16.20;99.90;;;;;;5092583;28;20002;-67
2022/08/08 01:00:23;;;;;;;;;;;16.30;99.90;;;;;;5095948;28;20490;-68
2022/08/08 01:03:07;;;;;;;;;;;16.20;99.90;;;;;;5104018;28;19962;-66
2022/08/08 01:05:51;;;;;;;;;;;16.10;99.90;;;;;;5094812;28;20343;-68
2022/08/08 01:08:19;;;;;;;;;;;16.00;99.90;;;;;;5080568;28;19916;-67
2022/08/08 01:10:56;;;;;;;;;;;16.00;99.90;;;;;;5099786;28;20377;-67
2022/08/08 01:13:28;;;;;;;;;;;16.00;99.90;;;;;;5097867;28;19919;-65
2022/08/08 01:16:00;;;;;;;;;;;15.90;99.90;;;;;;5091769;28;19985;-67
2022/08/08 01:18:30;;;;;;;;;;;15.90;99.90;;;;;;5082960;28;20011;-67
2022/08/08 01:21:14;;;;;;;;;;;15.90;99.90;;;;;;5100425;28;20030;-67
2022/08/08 01:23:39;;;;;;;;;;;16.00;99.90;;;;;;5099876;28;19919;-67
2022/08/08 01:26:24;;;;;;;;;;;15.90;99.90;;;;;;5097550;28;19912;-67
2022/08/08 01:28:58;;;;;;;;;;;15.90;99.90;;;;;;5094751;28;20282;-67
2022/08/08 01:31:39;;;;;;;;;;;15.90;99.90;;;;;;5096124;28;20321;-67
2022/08/08 01:34:10;;;;;;;;;;;15.80;99.90;;;;;;5092793;28;20348;-67
2022/08/08 01:36:46;;;;;;;;;;;15.80;99.90;;;;;;5100909;28;19924;-67
2022/08/08 01:39:15;;;;;;;;;;;15.70;99.90;;;;;;5096270;28;19980;-67
2022/08/08 01:41:50;;;;;;;;;;;15.60;99.90;;;;;;5095059;28;20381;-67
2022/08/08 01:44:38;;;;;;;;;;;15.60;99.90;;;;;;5099931;28;19922;-68
2022/08/08 01:47:03;;;;;;;;;;;15.60;99.90;;;;;;5096236;28;20346;-66
2022/08/08 01:49:38;;;;;;;;;;;15.50;99.90;;;;;;5095231;28;19927;-67
2022/08/08 01:52:15;;;;;;;;;;;15.60;99.90;;;;;;5092907;28;19920;-67
2022/08/08 01:55:05;;;;;;;;;;;15.50;99.90;;;;;;5093149;28;20260;-67
2022/08/08 01:57:31;;;;;;;;;;;15.40;99.90;;;;;;5093719;28;20320;-67
2022/08/08 02:00:15;;;;;;;;;;;15.30;99.90;;;;;;5075772;28;19924;-67
2022/08/08 02:02:59;;;;;;;;;;;15.30;99.90;;;;;;5097842;28;20959;-66
2022/08/08 02:05:25;;;;;;;;;;;15.30;99.90;;;;;;5092496;28;20377;-67
2022/08/08 02:08:06;;;;;;;;;;;15.20;99.90;;;;;;5096526;28;19951;-66
2022/08/08 02:10:36;;;;;;;;;;;15.30;99.90;;;;;;5072265;28;19919;-66
2022/08/08 02:13:24;;;;;;;;;;;15.20;99.90;;;;;;5096309;28;19912;-67
2022/08/08 02:15:58;;;;;;;;;;;15.10;99.90;;;;;;5098250;28;19912;-68
2022/08/08 02:18:45;;;;;;;;;;;15.00;99.90;;;;;;5097196;28;19923;-67
2022/08/08 02:24:17;;;;;;;;;;;15.00;99.90;;;;;;5100068;28;19919;-67
2022/08/08 02:26:47;;;;;;;;;;;15.10;99.90;;;;;;5091984;28;19912;-67
2022/08/08 02:29:32;;;;;;;;;;;15.00;99.90;;;;;;5094345;28;20434;-67
2022/08/08 02:32:12;;;;;;;;;;;14.90;99.90;;;;;;5095877;28;20806;-66
2022/08/08 02:35:00;;;;;;;;;;;14.80;99.90;;;;;;5081145;28;19919;-66
2022/08/08 02:37:44;;;;;;;;;;;14.80;99.90;;;;;;5079679;28;20298;-67
2022/08/08 02:40:25;;;;;;;;;;;14.80;99.90;;;;;;5090525;28;19927;-66
2022/08/08 02:43:09;;;;;;;;;;;14.80;99.90;;;;;;5098993;28;19961;-67
2022/08/08 02:45:40;;;;;;;;;;;14.80;99.90;;;;;;5095685;28;19961;-66
2022/08/08 02:48:15;;;;;;;;;;;14.70;99.90;;;;;;5099021;28;19912;-67
2022/08/08 02:50:46;;;;;;;;;;;14.70;99.90;;;;;;5095112;28;19919;-66
2022/08/08 02:53:37;;;;;;;;;;;14.70;99.90;;;;;;5096960;28;20724;-67
2022/08/08 02:56:15;;;;;;;;;;;14.70;99.90;;;;;;5051326;28;20555;-67
2022/08/08 02:59:09;;;;;;;;;;;14.60;99.90;;;;;;5088733;28;20306;-67
2022/08/08 03:01:38;;;;;;;;;;;14.40;99.90;;;;;;5094648;28;19912;-67
2022/08/08 03:04:22;;;;;;;;;;;14.30;99.90;;;;;;5095623;28;20375;-66
2022/08/08 03:06:59;;;;;;;;;;;14.30;99.90;;;;;;5090724;28;20044;-67
2022/08/08 03:09:43;;;;;;;;;;;14.20;99.90;;;;;;5101563;28;19919;-67
2022/08/08 03:12:19;;;;;;;;;;;14.10;99.90;;;;;;5091363;28;20212;-67
2022/08/08 03:14:48;;;;;;;;;;;14.10;99.90;;;;;;5097969;28;19916;-67
2022/08/08 03:17:13;;;;;;;;;;;14.10;99.90;;;;;;5090961;28;19919;-67
2022/08/08 03:19:57;;;;;;;;;;;14.00;99.90;;;;;;5092826;28;19932;-69
2022/08/08 03:22:23;;;;;;;;;;;14.00;99.90;;;;;;5089895;28;20362;-66
2022/08/08 03:24:50;;;;;;;;;;;14.00;99.90;;;;;;5097590;28;19916;-67
2022/08/08 03:27:21;;;;;;;;;;;13.90;99.90;;;;;;5091438;28;19943;-67
2022/08/08 03:29:50;;;;;;;;;;;13.90;99.90;;;;;;5100512;28;19916;-68
2022/08/08 03:35:02;;;;;;;;;;;13.80;99.90;;;;;;5099792;28;19918;-67
2022/08/08 03:37:28;;;;;;;;;;;13.80;99.90;;;;;;5094948;28;19966;-66
2022/08/08 03:39:54;;;;;;;;;;;13.70;99.90;;;;;;5078509;28;20394;-68
2022/08/08 03:42:22;;;;;;;;;;;13.70;99.90;;;;;;5081473;28;20546;-67
2022/08/08 03:44:48;;;;;;;;;;;13.70;99.90;;;;;;5078232;28;19935;-67
2022/08/08 03:47:18;;;;;;;;;;;13.70;99.90;;;;;;5080088;28;19916;-67
2022/08/08 03:49:44;;;;;;;;;;;13.70;99.90;;;;;;5057525;28;20016;-67
2022/08/08 03:52:09;;;;;;;;;;;13.60;99.90;;;;;;5069598;28;20379;-67
2022/08/08 03:54:35;;;;;;;;;;;13.60;99.90;;;;;;5080421;28;19920;-67
2022/08/08 03:57:00;;;;;;;;;;;13.60;99.90;;;;;;5075763;28;19919;-66
2022/08/08 03:59:29;;;;;;;;;;;13.50;99.90;;;;;;5078539;28;19924;-67
2022/08/08 04:01:55;;;;;;;;;;;13.60;99.90;;;;;;5074649;28;19916;-68
2022/08/08 04:04:20;;;;;;;;;;;13.60;99.90;;;;;;5079367;28;19946;-66
2022/08/08 04:06:56;;;;;;;;;;;13.60;99.90;;;;;;5072655;28;19951;-67
2022/08/08 04:09:22;;;;;;;;;;;13.50;99.90;;;;;;5071691;28;19912;-67
2022/08/08 04:11:47;;;;;;;;;;;13.50;99.90;;;;;;5072600;28;19919;-68
2022/08/08 04:14:13;;;;;;;;;;;13.70;99.90;;;;;;5058133;28;19944;-67
2022/08/08 04:16:38;;;;;;;;;;;13.50;99.90;;;;;;5076082;28;19916;-67
2022/08/08 04:19:04;;;;;;;;;;;13.50;99.90;;;;;;5070931;28;19916;-67
2022/08/08 04:21:29;;;;;;;;;;;13.40;99.90;;;;;;5060898;28;19954;-67
2022/08/08 04:23:55;;;;;;;;;;;13.30;99.90;;;;;;5075696;28;19913;-67
2022/08/08 04:26:20;;;;;;;;;;;13.30;99.90;;;;;;5054366;28;19913;-67
2022/08/08 04:28:46;;;;;;;;;;;13.30;99.90;;;;;;5072123;28;19919;-67
2022/08/08 04:31:11;;;;;;;;;;;13.30;99.90;;;;;;5075575;28;19912;-66
2022/08/08 04:33:37;;;;;;;;;;;13.30;99.90;;;;;;5074816;28;19983;-67
2022/08/08 04:36:03;;;;;;;;;;;13.30;99.90;;;;;;5078325;28;19912;-67
2022/08/08 04:38:28;;;;;;;;;;;13.20;99.90;;;;;;5079647;28;20224;-67
2022/08/08 04:40:54;;;;;;;;;;;13.30;99.90;;;;;;5083524;28;19961;-66
2022/08/08 04:43:19;;;;;;;;;;;13.20;99.90;;;;;;5097268;28;19916;-66
2022/08/08 04:45:45;;;;;;;;;;;13.20;99.90;;;;;;5093067;28;19926;-66
2022/08/08 04:48:10;;;;;;;;;;;13.20;99.90;;;;;;5099586;28;19912;-67
2022/08/08 04:50:36;;;;;;;;;;;13.10;99.90;;;;;;5099783;28;20948;-67
2022/08/08 04:53:04;;;;;;;;;;;13.10;99.90;;;;;;5090266;28;20362;-66
2022/08/08 04:55:30;;;;;;;;;;;13.10;99.90;;;;;;5104201;28;19916;-67
2022/08/08 04:57:55;;;;;;;;;;;13.10;99.90;;;;;;5097353;28;20385;-67
2022/08/08 05:00:23;;;;;;;;;;;13.00;99.90;;;;;;5093155;28;19959;-67
2022/08/08 05:02:49;;;;;;;;;;;12.90;99.90;;;;;;5098168;28;19911;-67
2022/08/08 05:05:16;;;;;;;;;;;12.80;99.90;;;;;;5101959;28;19920;-67
2022/08/08 05:07:42;;;;;;;;;;;12.80;99.90;;;;;;5097610;28;19912;-67
2022/08/08 05:10:07;;;;;;;;;;;12.80;99.90;;;;;;5098410;28;20374;-66
2022/08/08 05:12:33;;;;;;;;;;;12.80;99.90;;;;;;5095096;28;19920;-67
2022/08/08 05:14:58;;;;;;;;;;;12.80;99.90;;;;;;5079742;28;19919;-67
2022/08/08 05:17:24;;;;;;;;;;;12.80;99.90;;;;;;5094112;28;19923;-65
2022/08/08 05:19:50;;;;;;;;;;;12.90;99.90;;;;;;5097757;28;19922;-67
2022/08/08 05:22:15;;;;;;;;;;;12.90;99.90;;;;;;5099392;28;19930;-67
2022/08/08 05:24:41;;;;;;;;;;;12.90;99.90;;;;;;5099506;28;20006;-67
2022/08/08 05:27:07;;;;;;;;;;;12.90;99.90;;;;;;5099209;28;20002;-67
2022/08/08 05:29:32;;;;;;;;;;;12.90;99.90;;;;;;5099676;28;19919;-66
2022/08/08 05:31:58;;;;;;;;;;;12.90;99.90;;;;;;5099732;28;19938;-67
2022/08/08 05:34:24;;;;;;;;;;;12.90;99.90;;;;;;5101126;28;20274;-67
2022/08/08 05:36:51;;;;;;;;;;;12.90;99.90;;;;;;5098799;28;19916;-67
2022/08/08 05:39:19;;;;;;;;;;;12.90;99.90;;;;;;5094924;28;20054;-67
2022/08/08 05:41:48;;;;;;;;;;;12.90;99.90;;;;;;5095732;28;21224;-67
2022/08/08 05:44:15;;;;;;;;;;;12.90;99.90;;;;;;5099839;28;20011;-67
2022/08/08 05:46:41;;;;;;;;;;;12.90;99.90;;;;;;5099995;28;20426;-67
2022/08/08 05:49:07;;;;;;;;;;;13.10;99.90;;;;;;5099864;28;19912;-67
2022/08/08 05:51:33;;;;;;;;;;;13.10;99.90;;;;;;5097396;28;20342;-67
2022/08/08 05:53:59;;;;;;;;;;;13.10;99.90;;;;;;5101294;28;19912;-67
2022/08/08 05:56:25;;;;;;;;;;;13.10;99.90;;;;;;5098199;28;19912;-66
2022/08/08 05:58:59;;;;;;;;;;;13.20;99.90;;;;;;5094464;28;19916;-67
2022/08/08 06:01:28;;;;;;;;;;;13.20;99.90;;;;;;5081605;28;20742;-67
2022/08/08 06:03:55;;;;;;;;;;;13.30;99.90;;;;;;5093979;28;19916;-67
2022/08/08 06:06:24;;;;;;;;;;;13.30;99.90;;;;;;5097190;28;19915;-67
2022/08/08 06:08:50;;;;;;;;;;;13.40;99.90;;;;;;5094299;28;19955;-67
2022/08/08 06:11:16;;;;;;;;;;;13.50;99.90;;;;;;5099651;28;19963;-66
2022/08/08 06:13:43;;;;;;;;;;;13.60;99.90;;;;;;5079476;28;20349;-68
2022/08/08 06:16:10;;;;;;;;;;;13.70;99.90;;;;;;5098043;28;20025;-67
2022/08/08 06:18:36;;;;;;;;;;;13.70;99.90;;;;;;5100248;28;19924;-67
2022/08/08 06:21:02;;;;;;;;;;;13.90;99.90;;;;;;5099407;28;19915;-66
2022/08/08 06:23:27;;;;;;;;;;;14.00;99.90;;;;;;5103224;28;19969;-67
2022/08/08 06:26:02;;;;;;;;;;;14.20;99.90;;;;;;5099639;28;21505;-67
2022/08/08 06:28:43;;;;;;;;;;;14.30;99.90;;;;;;5081004;28;19912;-66
2022/08/08 06:31:09;;;;;;;;;;;14.30;99.90;;;;;;5077601;28;19944;-66
2022/08/08 06:33:39;;;;;;;;;;;14.50;99.90;;;;;;5101279;28;19950;-67
2022/08/08 06:36:05;;;;;;;;;;;14.60;99.90;;;;;;5094436;28;20288;-67
2022/08/08 06:38:33;;;;;;;;;;;14.80;99.90;;;;;;5096036;28;20253;-67
2022/08/08 06:41:06;;;;;;;;;;;14.90;99.90;;;;;;5097686;28;19927;-67
2022/08/08 06:43:36;;;;;;;;;;;14.90;99.90;;;;;;5094534;28;19916;-67
2022/08/08 06:46:03;;;;;;;;;;;15.00;99.90;;;;;;5090450;28;20336;-68
2022/08/08 06:48:28;;;;;;;;;;;15.10;99.90;;;;;;5095487;28;19923;-67
2022/08/08 06:50:54;;;;;;;;;;;15.20;99.90;;;;;;5092073;28;19909;-67
2022/08/08 06:53:20;;;;;;;;;;;15.30;99.90;;;;;;5091448;28;19920;-66
2022/08/08 06:55:47;;;;;;;;;;;15.50;99.90;;;;;;5096366;28;19919;-67
2022/08/08 06:58:13;;;;;;;;;;;15.60;99.90;;;;;;5071891;28;19916;-67
2022/08/08 07:00:39;;;;;;;;;;;15.80;99.90;;;;;;5077204;28;20366;-68
2022/08/08 07:03:08;;;;;;;;;;;15.80;99.90;;;;;;5095900;28;19912;-67
2022/08/08 07:05:37;;;;;;;;;;;15.90;99.90;;;;;;5085213;28;19924;-67
2022/08/08 07:08:08;;;;;;;;;;;16.00;99.90;;;;;;5098927;28;19909;-67
2022/08/08 07:10:37;;;;;;;;;;;16.10;99.90;;;;;;5093127;28;19912;-67
2022/08/08 07:13:07;;;;;;;;;;;16.30;99.90;;;;;;5096153;28;20350;-67
2022/08/08 07:15:32;;;;;;;;;;;16.50;99.90;;;;;;5098452;28;19965;-68
2022/08/08 07:18:03;;;;;;;;;;;16.60;99.90;;;;;;5088868;28;19928;-67
2022/08/08 07:20:32;;;;;;;;;;;16.80;99.90;;;;;;5082560;28;19934;-67
2022/08/08 07:23:01;;;;;;;;;;;17.00;99.90;;;;;;5094788;28;20312;-68
2022/08/08 07:25:27;;;;;;;;;;;17.10;99.90;;;;;;5090005;28;20283;-68
2022/08/08 07:27:58;;;;;;;;;;;17.10;99.90;;;;;;5091193;28;20466;-68
2022/08/08 07:30:23;;;;;;;;;;;17.30;99.90;;;;;;5095330;28;20020;-67
2022/08/08 07:32:50;;;;;;;;;;;17.40;99.90;;;;;;5090430;28;20402;-68
2022/08/08 07:35:16;;;;;;;;;;;17.50;99.90;;;;;;5095034;28;19946;-68
2022/08/08 07:37:42;;;;;;;;;;;17.50;99.90;;;;;;5098777;28;20318;-68
2022/08/08 07:40:08;;;;;;;;;;;17.60;99.90;;;;;;5079364;28;19970;-67
2022/08/08 07:42:35;;;;;;;;;;;17.60;99.90;;;;;;5071080;28;19920;-67
2022/08/08 07:45:01;;;;;;;;;;;17.70;99.90;;;;;;5094232;28;19970;-68
2022/08/08 07:47:26;;;;;;;;;;;17.90;99.90;;;;;;5094278;28;19952;-67
2022/08/08 07:49:52;;;;;;;;;;;17.90;99.90;;;;;;5077149;28;20379;-66
2022/08/08 07:52:18;;;;;;;;;;;18.10;99.90;;;;;;5092287;28;20271;-67
2022/08/08 07:55:19;;;;;;;;;;;18.20;99.90;;;;;;5095626;28;19969;-67
2022/08/08 07:57:54;;;;;;;;;;;18.40;99.90;;;;;;4990577;28;19949;-67
2022/08/08 08:00:20;;;;;;;;;;;18.40;99.90;;;;;;5074055;28;20279;-67
2022/08/08 08:03:00;;;;;;;;;;;18.40;99.90;;;;;;5102542;28;19971;-65
2022/08/08 08:05:27;;;;;;;;;;;18.60;99.90;;;;;;5070989;28;19912;-68
2022/08/08 08:08:17;;;;;;;;;;;18.60;99.90;;;;;;5091497;28;19915;-67
2022/08/08 08:10:48;;;;;;;;;;;18.70;99.90;;;;;;5054861;28;19916;-68
2022/08/08 08:13:19;;;;;;;;;;;18.80;99.90;;;;;;5099413;28;19914;-67
2022/08/08 08:15:58;;;;;;;;;;;18.90;99.90;;;;;;5096692;28;19912;-67
2022/08/08 08:18:24;;;;;;;;;;;18.90;99.90;;;;;;5076229;28;19920;-67
2022/08/08 08:20:51;;;;;;;;;;;19.00;99.90;;;;;;5095396;28;20018;-68
2022/08/08 08:23:17;;;;;;;;;;;19.10;99.90;;;;;;5094410;28;19957;-67
2022/08/08 08:25:42;;;;;;;;;;;19.20;99.90;;;;;;5094570;28;19912;-66
2022/08/08 08:28:08;;;;;;;;;;;19.30;99.90;;;;;;5099546;28;19916;-67
2022/08/08 08:30:34;;;;;;;;;;;19.70;99.90;;;;;;5092833;28;19941;-66
2022/08/08 08:33:00;;;;;;;;;;;19.70;99.90;;;;;;5091552;28;19912;-67
2022/08/08 08:35:25;;;;;;;;;;;19.80;99.90;;;;;;5096968;28;19912;-67
2022/08/08 08:37:51;;;;;;;;;;;20.20;99.90;;;;;;5077239;28;20235;-67
2022/08/08 08:40:17;;;;;;;;;;;20.40;99.90;;;;;;5095778;28;19920;-67
2022/08/08 08:42:44;;;;;;;;;;;20.60;99.90;;;;;;5089001;28;19953;-68
2022/08/08 08:45:10;;;;;;;;;;;20.70;99.90;;;;;;5101217;28;19927;-67
2022/08/08 08:47:35;;;;;;;;;;;20.50;99.90;;;;;;5097837;28;19999;-68
2022/08/08 08:50:01;;;;;;;;;;;20.60;99.90;;;;;;5096196;28;20476;-68
2022/08/08 08:52:26;;;;;;;;;;;20.70;99.90;;;;;;5075980;28;20295;-69
2022/08/08 08:54:55;;;;;;;;;;;20.80;99.90;;;;;;5097280;28;19999;-68
2022/08/08 08:57:22;;;;;;;;;;;20.80;99.90;;;;;;5099516;28;20354;-68
2022/08/08 08:59:48;;;;;;;;;;;20.90;99.90;;;;;;5087918;28;20010;-67
2022/08/08 09:02:23;;;;;;;;;;;21.10;99.90;;;;;;5097543;28;19916;-68
2022/08/08 09:04:50;;;;;;;;;;;21.20;99.90;;;;;;5074240;28;19916;-67
2022/08/08 09:07:18;;;;;;;;;;;21.30;99.90;;;;;;5104292;28;20406;-68
2022/08/08 09:09:52;;;;;;;;;;;21.30;99.90;;;;;;5102348;28;19912;-68
2022/08/08 09:12:20;;;;;;;;;;;21.40;99.90;;;;;;5084188;28;20321;-67
2022/08/08 09:14:47;;;;;;;;;;;21.50;99.90;;;;;;5098004;28;19912;-68
2022/08/08 09:17:13;;;;;;;;;;;21.40;99.90;;;;;;5096383;28;19922;-67
2022/08/08 09:19:39;;;;;;;;;;;21.40;99.90;;;;;;5088778;28;19920;-68
2022/08/08 09:22:05;;;;;;;;;;;21.60;99.90;;;;;;5077334;28;19915;-67
2022/08/08 09:24:31;;;;;;;;;;;21.60;99.90;;;;;;5103974;28;19918;-68
2022/08/08 09:27:07;;;;;;;;;;;21.60;99.90;;;;;;5096663;28;19919;-67
2022/08/08 09:29:51;;;;;;;;;;;21.60;99.90;;;;;;5100646;28;19919;-68
2022/08/08 09:32:22;;;;;;;;;;;21.80;99.90;;;;;;5098835;28;20376;-68
2022/08/08 09:34:50;;;;;;;;;;;21.80;99.90;;;;;;5097364;28;19981;-69
2022/08/08 09:37:17;;;;;;;;;;;21.90;99.90;;;;;;5094629;28;19931;-67
2022/08/08 09:40:01;;;;;;;;;;;22.00;99.90;;;;;;5094005;28;19976;-67
2022/08/08 09:42:37;;;;;;;;;;;21.90;99.90;;;;;;5096179;28;19923;-67
2022/08/08 09:45:10;;;;;;;;;;;21.90;99.90;;;;;;5096859;28;20338;-68
2022/08/08 09:47:37;;;;;;;;;;;22.00;99.90;;;;;;5098077;28;19916;-67
2022/08/08 09:50:05;;;;;;;;;;;22.30;98.40;;;;;;5078786;28;19927;-67
2022/08/08 09:52:32;;;;;;;;;;;22.30;97.70;;;;;;5080836;28;19954;-67
2022/08/08 09:54:58;;;;;;;;;;;22.40;97.30;;;;;;5100158;28;19920;-68
2022/08/08 09:57:44;;;;;;;;;;;22.50;96.00;;;;;;5082498;28;20259;-66
2022/08/08 10:00:11;;;;;;;;;;;22.70;94.20;;;;;;5092789;28;19960;-67
2022/08/08 10:02:37;;;;;;;;;;;22.70;93.60;;;;;;5099682;28;19946;-66
2022/08/08 10:05:07;;;;;;;;;;;22.60;91.60;;;;;;5094246;28;19912;-67
2022/08/08 10:07:33;;;;;;;;;;;22.70;90.30;;;;;;5097110;28;20011;-67
2022/08/08 10:09:59;;;;;;;;;;;22.80;90.50;;;;;;5082727;28;20026;-67
2022/08/08 10:12:35;;;;;;;;;;;22.80;86.10;;;;;;5097512;28;19912;-67
2022/08/08 10:15:01;;;;;;;;;;;22.90;84.40;;;;;;5098946;28;19920;-67
2022/08/08 10:17:27;;;;;;;;;;;23.00;84.20;;;;;;5080502;28;19912;-68
2022/08/08 10:19:57;;;;;;;;;;;23.10;82.70;;;;;;5102934;28;19915;-66
2022/08/08 10:22:23;;;;;;;;;;;23.20;83.20;;;;;;5094512;28;20285;-67
2022/08/08 10:24:50;;;;;;;;;;;23.30;81.40;;;;;;5088322;28;19924;-67
2022/08/08 10:27:18;;;;;;;;;;;23.30;77.50;;;;;;5073733;28;19919;-67
2022/08/08 10:29:52;;;;;;;;;;;23.30;78.00;;;;;;5094388;28;19923;-67
2022/08/08 10:35:09;;;;;;;;;;;23.30;72.60;;;;;;5094120;28;20098;-68
2022/08/08 10:37:35;;;;;;;;;;;23.50;74.90;;;;;;5094219;28;19943;-67
2022/08/08 10:40:12;;;;;;;;;;;23.70;75.90;;;;;;5092879;28;20344;-68
2022/08/08 10:42:39;;;;;;;;;;;23.70;72.80;;;;;;5093739;28;19916;-67
2022/08/08 10:45:06;;;;;;;;;;;23.60;72.40;;;;;;5089843;28;20375;-68
2022/08/08 10:47:31;;;;;;;;;;;23.70;72.20;;;;;;5097165;28;19919;-68
2022/08/08 10:49:59;;;;;;;;;;;23.70;70.40;;;;;;5101763;28;19912;-68
2022/08/08 10:52:30;;;;;;;;;;;23.90;70.30;;;;;;5091507;28;20004;-69
2022/08/08 10:54:56;;;;;;;;;;;24.20;66.00;;;;;;5098615;28;20215;-68
2022/08/08 10:57:22;;;;;;;;;;;24.20;64.80;;;;;;5096549;28;19962;-68
2022/08/08 10:59:51;;;;;;;;;;;24.20;62.20;;;;;;5090735;28;19963;-68
2022/08/08 11:02:29;;;;;;;;;;;24.10;59.00;;;;;;5079075;28;19947;-67
2022/08/08 11:04:58;;;;;;;;;;;24.30;61.20;;;;;;5098856;28;19941;-67
2022/08/08 11:07:28;;;;;;;;;;;24.30;61.90;;;;;;5087341;28;20274;-68
2022/08/08 11:09:54;;;;;;;;;;;24.40;63.10;;;;;;5072651;28;19920;-68
2022/08/08 11:12:19;;;;;;;;;;;24.50;58.00;;;;;;5092659;28;20386;-68
2022/08/08 11:14:52;;;;;;;;;;;24.60;58.80;;;;;;5098649;28;19974;-67
2022/08/08 11:17:20;;;;;;;;;;;24.70;56.70;;;;;;5096332;28;19912;-68
2022/08/08 11:19:46;;;;;;;;;;;24.70;60.70;;;;;;5095203;28;19923;-68
2022/08/08 11:22:13;;;;;;;;;;;24.70;59.00;;;;;;5095060;28;19923;-68
2022/08/08 11:24:39;;;;;;;;;;;24.80;59.10;;;;;;5089145;28;19922;-67
2022/08/08 11:27:06;;;;;;;;;;;24.80;57.60;;;;;;5073744;28;19958;-68
2022/08/08 11:29:34;;;;;;;;;;;25.00;58.20;;;;;;5091160;28;19956;-67
2022/08/08 11:32:01;;;;;;;;;;;25.00;57.90;;;;;;5090360;28;19943;-68
2022/08/08 11:34:31;;;;;;;;;;;24.90;59.10;;;;;;5090035;28;19916;-68
2022/08/08 11:36:57;;;;;;;;;;;24.90;59.90;;;;;;5091952;28;19919;-67
2022/08/08 11:39:22;;;;;;;;;;;25.00;60.70;;;;;;5077831;28;19924;-68
2022/08/08 11:41:49;;;;;;;;;;;25.00;58.50;;;;;;5075593;28;19969;-68
2022/08/08 11:44:15;;;;;;;;;;;25.00;57.70;;;;;;5074005;28;20007;-69
2022/08/08 11:46:41;;;;;;;;;;;25.00;59.50;;;;;;5080106;28;19912;-68
2022/08/08 11:49:07;;;;;;;;;;;24.90;55.80;;;;;;5095338;28;19994;-69
2022/08/08 11:51:34;;;;;;;;;;;25.10;54.90;;;;;;5097262;28;19934;-67
2022/08/08 11:54:00;;;;;;;;;;;25.20;59.50;;;;;;5093267;28;19978;-68
2022/08/08 11:56:30;;;;;;;;;;;25.20;55.60;;;;;;5092154;28;19995;-69
2022/08/08 11:59:03;;;;;;;;;;;25.10;55.80;;;;;;5091706;28;19916;-67
2022/08/08 12:01:29;;;;;;;;;;;25.10;55.50;;;;;;5085694;28;19924;-68
2022/08/08 12:03:55;;;;;;;;;;;25.20;56.20;;;;;;5081623;28;20393;-68
2022/08/08 12:06:21;;;;;;;;;;;25.30;56.50;;;;;;5080941;28;19916;-67
2022/08/08 12:08:47;;;;;;;;;;;25.20;54.30;;;;;;5089279;28;20312;-68
2022/08/08 12:11:14;;;;;;;;;;;25.30;51.80;;;;;;5078576;28;19911;-68
2022/08/08 12:13:40;;;;;;;;;;;25.40;50.70;;;;;;5093778;28;20359;-68
2022/08/08 12:16:09;;;;;;;;;;;25.50;48.20;;;;;;5091706;28;20002;-68
2022/08/08 12:18:44;;;;;;;;;;;25.50;50.40;;;;;;5094729;28;19916;-67
2022/08/08 12:21:20;;;;;;;;;;;25.50;49.50;;;;;;5077218;28;19922;-68
2022/08/08 12:23:45;;;;;;;;;;;25.60;46.80;;;;;;5090754;28;20136;-69
2022/08/08 12:26:12;;;;;;;;;;;25.70;49.50;;;;;;5090173;28;20397;-67
2022/08/08 12:28:38;;;;;;;;;;;25.80;49.40;;;;;;5092703;28;19946;-67
2022/08/08 12:31:04;;;;;;;;;;;25.80;49.60;;;;;;5090986;28;19960;-68
2022/08/08 12:33:31;;;;;;;;;;;25.80;47.90;;;;;;5084075;28;19923;-68
2022/08/08 12:35:56;;;;;;;;;;;25.90;45.20;;;;;;5089821;28;20281;-68
2022/08/08 12:38:22;;;;;;;;;;;26.00;45.60;;;;;;5087484;28;19989;-68
2022/08/08 12:40:48;;;;;;;;;;;26.10;47.20;;;;;;5092296;28;19974;-69
2022/08/08 12:43:15;;;;;;;;;;;26.20;49.50;;;;;;5087809;28;20427;-68
2022/08/08 12:45:42;;;;;;;;;;;26.20;50.30;;;;;;5084652;28;19920;-68
2022/08/08 12:48:17;;;;;;;;;;;26.20;51.30;;;;;;5088911;28;19928;-68
2022/08/08 12:50:43;;;;;;;;;;;26.30;50.70;;;;;;5093470;28;20078;-68
2022/08/08 12:53:28;;;;;;;;;;;26.30;49.90;;;;;;5088461;28;19918;-67
2022/08/08 12:56:01;;;;;;;;;;;26.10;49.50;;;;;;5091995;28;19957;-69
2022/08/08 12:58:27;;;;;;;;;;;26.10;50.10;;;;;;5072628;28;19930;-68
2022/08/08 13:00:53;;;;;;;;;;;26.20;49.10;;;;;;5076892;28;19920;-68
2022/08/08 13:03:25;;;;;;;;;;;26.20;50.20;;;;;;5094880;28;19919;-69
2022/08/08 13:06:12;;;;;;;;;;;26.20;47.90;;;;;;5089940;28;19912;-68
2022/08/08 13:08:41;;;;;;;;;;;26.00;46.40;;;;;;5091190;28;19989;-68
2022/08/08 13:11:19;;;;;;;;;;;26.20;46.00;;;;;;5091086;28;19999;-67
2022/08/08 13:13:49;;;;;;;;;;;26.30;46.80;;;;;;5086742;28;19926;-68
2022/08/08 13:16:16;;;;;;;;;;;26.10;47.30;;;;;;5089130;28;19916;-68
2022/08/08 13:18:43;;;;;;;;;;;25.90;47.70;;;;;;5089982;28;19924;-68
2022/08/08 13:21:11;;;;;;;;;;;26.00;48.30;;;;;;5096210;28;20008;-67
2022/08/08 13:23:37;;;;;;;;;;;26.00;47.50;;;;;;5068481;28;19999;-68
2022/08/08 13:26:03;;;;;;;;;;;26.20;45.20;;;;;;5089288;28;19998;-68
2022/08/08 13:28:29;;;;;;;;;;;26.30;45.30;;;;;;5079127;28;19915;-67
2022/08/08 13:30:55;;;;;;;;;;;26.40;44.60;;;;;;5089332;28;19916;-68
2022/08/08 13:33:21;;;;;;;;;;;26.50;44.60;;;;;;5088957;28;19920;-68
2022/08/08 13:35:46;;;;;;;;;;;26.60;44.80;;;;;;5094583;28;19914;-67
2022/08/08 13:38:12;;;;;;;;;;;26.60;44.90;;;;;;5091562;28;19912;-68
2022/08/08 13:40:37;;;;;;;;;;;26.80;44.10;;;;;;5091059;28;20363;-68
2022/08/08 13:43:03;;;;;;;;;;;26.80;44.10;;;;;;5097590;28;20331;-66
2022/08/08 13:45:29;;;;;;;;;;;26.90;43.90;;;;;;5090165;28;20330;-68
2022/08/08 13:47:55;;;;;;;;;;;26.80;42.60;;;;;;5097292;28;20366;-68
2022/08/08 13:50:21;;;;;;;;;;;26.70;43.10;;;;;;5092741;28;19963;-68
2022/08/08 13:52:47;;;;;;;;;;;26.70;42.90;;;;;;5093512;28;19958;-68
2022/08/08 13:55:13;;;;;;;;;;;26.70;43.00;;;;;;5085677;28;19963;-69
2022/08/08 13:57:38;;;;;;;;;;;26.70;41.50;;;;;;5099098;28;20010;-68
2022/08/08 14:00:09;;;;;;;;;;;26.70;40.90;;;;;;5093640;28;20227;-68
2022/08/08 14:02:35;;;;;;;;;;;26.80;46.40;;;;;;5092128;28;19912;-69
2022/08/08 14:05:03;;;;;;;;;;;26.80;46.70;;;;;;5094620;28;20604;-68
2022/08/08 14:07:30;;;;;;;;;;;26.90;42.40;;;;;;5077296;28;19916;-69
2022/08/08 14:09:59;;;;;;;;;;;26.90;45.00;;;;;;5094487;28;20270;-69
2022/08/08 14:12:26;;;;;;;;;;;27.00;42.10;;;;;;5099809;28;20347;-68
2022/08/08 14:14:51;;;;;;;;;;;27.00;43.10;;;;;;5093317;28;19922;-69
2022/08/08 14:17:18;;;;;;;;;;;27.10;41.10;;;;;;5090724;28;19920;-69
2022/08/08 14:19:43;;;;;;;;;;;27.10;41.40;;;;;;5096690;28;20275;-68
2022/08/08 14:22:28;;;;;;;;;;;27.10;40.70;;;;;;5092964;28;19987;-68
2022/08/08 14:24:55;;;;;;;;;;;27.20;41.90;;;;;;5072449;28;20757;-69
2022/08/08 14:27:22;;;;;;;;;;;27.30;40.30;;;;;;5096035;28;19965;-69
2022/08/08 14:29:52;;;;;;;;;;;27.30;40.20;;;;;;5100252;28;19916;-69
2022/08/08 14:32:18;;;;;;;;;;;27.40;45.80;;;;;;5092383;28;19912;-68
2022/08/08 14:34:48;;;;;;;;;;;27.30;45.00;;;;;;5095993;28;20007;-69
2022/08/08 14:37:15;;;;;;;;;;;27.30;41.90;;;;;;5096164;28;19953;-68
2022/08/08 14:39:42;;;;;;;;;;;27.60;40.20;;;;;;5101313;28;20006;-69
2022/08/08 14:42:08;;;;;;;;;;;27.70;39.90;;;;;;5092493;28;19916;-69